Terminal Aerodrome Forecast
Issued by NWS

Home | Current Version | Previous Version | Text Only | Print | Product List | Glossary On
Versions: 1 2 3 4 5 6 7 8 9 10 11 12 13 14 15 16 17 18 19 20 21
190
FTUS42 KTAE 242324
TAFDHN
TAF
KDHN 242324Z 2500/2524 21006KT P6SM SKC
     FM250800 26007KT 3SM BR OVC004
     FM251400 32010KT P6SM BKN035
     FM251700 32012G18KT P6SM SKC=

USA.gov is the U.S. government's official web portal to all federal, state and local government web resources and services.